Terminal Aerodrome Forecast
Issued by NWS

Current Version | Previous Version | Text Only | Print | Product List | Glossary Off
Versions: 1 2 3 4 5 6 7 8 9 10 11 12 13 14 15 16 17 18 19 20 21 22 23 24 25

000
FTUS41 KILN 211600 AAA
TAFLCK
TAF AMD
KLCK 211624Z 2116/2212 32010G18KT P6SM OVC025
      TEMPO 2116/2118 OVC015
     FM212200 33008KT P6SM OVC015=

USA.gov is the U.S. government's official web portal to all federal, state and local government web resources and services.